Time;durP1;ratioP1;P1;durP2;ratioP2;P2;SDS_P1;SDS_P2;PMS_P1;PMS_P2;Temp;Humidity;BMP_temperature;BMP_pressure;BME280_temperature;BME280_humidity;BME280_pressure;Samples;Min_cycle;Max_cycle;Signal;HPM_P1;HPM_P2
2022/03/03 00:02:02;;;;;;;;;;;1.10;99.90;;;;;;5105019;28;19935;-84
2022/03/03 00:04:29;;;;;;;;;;;1.10;99.90;;;;;;5107853;28;20294;-77
2022/03/03 00:06:56;;;;;;;;;;;1.10;99.90;;;;;;5101849;28;20185;-79
2022/03/03 00:09:22;;;;;;;;;;;1.10;99.90;;;;;;5108043;28;20271;-78
2022/03/03 00:11:49;;;;;;;;;;;1.10;99.90;;;;;;5102097;28;20386;-78
2022/03/03 00:14:15;;;;;;;;;;;1.10;99.90;;;;;;5096031;28;20005;-78
2022/03/03 00:16:42;;;;;;;;;;;1.00;99.90;;;;;;5100563;28;19924;-78
2022/03/03 00:19:08;;;;;;;;;;;1.10;99.90;;;;;;5097687;28;19924;-78
2022/03/03 00:21:35;;;;;;;;;;;1.10;99.90;;;;;;5104550;28;19924;-77
2022/03/03 00:24:01;;;;;;;;;;;1.10;99.90;;;;;;5105889;28;19924;-78
2022/03/03 00:26:28;;;;;;;;;;;1.10;99.90;;;;;;5098366;28;20295;-78
2022/03/03 00:28:54;;;;;;;;;;;1.00;99.90;;;;;;5104412;28;20368;-78
2022/03/03 00:31:23;;;;;;;;;;;1.00;99.90;;;;;;5108631;28;20385;-78
2022/03/03 00:33:49;;;;;;;;;;;1.00;99.90;;;;;;5095893;28;19928;-78
2022/03/03 00:36:16;;;;;;;;;;;1.00;99.90;;;;;;5102689;28;19928;-78
2022/03/03 00:38:42;;;;;;;;;;;1.00;99.90;;;;;;5105150;28;20018;-78
2022/03/03 00:41:09;;;;;;;;;;;1.00;99.90;;;;;;5111078;28;19998;-78
2022/03/03 00:43:35;;;;;;;;;;;1.00;99.90;;;;;;5105750;28;20387;-76
2022/03/03 00:46:02;;;;;;;;;;;1.00;99.90;;;;;;5111283;28;20298;-78
2022/03/03 00:48:28;;;;;;;;;;;1.00;99.90;;;;;;5109188;28;19923;-77
2022/03/03 00:50:55;;;;;;;;;;;1.00;99.90;;;;;;5105159;28;20433;-79
2022/03/03 00:53:23;;;;;;;;;;;0.90;99.90;;;;;;5108126;28;19927;-78
2022/03/03 00:55:49;;;;;;;;;;;0.80;99.90;;;;;;5110141;28;19966;-79
2022/03/03 00:58:16;;;;;;;;;;;0.80;99.90;;;;;;5111062;28;19924;-79
2022/03/03 01:00:42;;;;;;;;;;;0.80;99.90;;;;;;5102611;28;19932;-79
2022/03/03 01:03:09;;;;;;;;;;;0.80;99.90;;;;;;5108744;28;20328;-79
2022/03/03 01:05:35;;;;;;;;;;;0.70;99.90;;;;;;5106667;28;20310;-79
2022/03/03 01:08:02;;;;;;;;;;;0.70;99.90;;;;;;5105924;28;19928;-79
2022/03/03 01:10:29;;;;;;;;;;;0.60;99.90;;;;;;5101203;28;20280;-79
2022/03/03 01:12:56;;;;;;;;;;;0.60;99.90;;;;;;5108110;28;19924;-79
2022/03/03 01:15:22;;;;;;;;;;;0.60;99.90;;;;;;5108105;28;19924;-79
2022/03/03 01:17:49;;;;;;;;;;;0.60;99.90;;;;;;5113775;28;20256;-79
2022/03/03 01:20:15;;;;;;;;;;;0.60;99.90;;;;;;5108402;28;20024;-79
2022/03/03 01:22:42;;;;;;;;;;;0.60;99.90;;;;;;5096793;28;19924;-81
2022/03/03 01:25:08;;;;;;;;;;;0.60;99.90;;;;;;5106353;28;19988;-79
2022/03/03 01:27:35;;;;;;;;;;;0.60;99.90;;;;;;5110755;28;19930;-79
2022/03/03 01:30:02;;;;;;;;;;;0.60;99.90;;;;;;5102127;28;20379;-79
2022/03/03 01:32:29;;;;;;;;;;;0.60;99.90;;;;;;5107727;28;19934;-79
2022/03/03 01:34:55;;;;;;;;;;;0.60;99.90;;;;;;5099693;28;19931;-79
2022/03/03 01:37:22;;;;;;;;;;;0.60;99.90;;;;;;5104282;28;19924;-77
2022/03/03 01:39:49;;;;;;;;;;;0.60;99.90;;;;;;5110125;28;19935;-79
2022/03/03 01:42:15;;;;;;;;;;;0.60;99.90;;;;;;5098960;28;19932;-79
2022/03/03 01:44:42;;;;;;;;;;;0.60;99.90;;;;;;5108207;28;19948;-81
2022/03/03 01:47:08;;;;;;;;;;;0.60;99.90;;;;;;5106410;28;19923;-77
2022/03/03 01:49:35;;;;;;;;;;;0.50;99.90;;;;;;5109549;28;19924;-79
2022/03/03 01:52:01;;;;;;;;;;;0.50;99.90;;;;;;5109700;28;19951;-79
2022/03/03 01:54:28;;;;;;;;;;;0.50;99.90;;;;;;5102196;28;19931;-79
2022/03/03 01:56:54;;;;;;;;;;;0.40;99.90;;;;;;5100919;28;19924;-79
2022/03/03 01:59:21;;;;;;;;;;;0.40;99.90;;;;;;5107124;28;19950;-78
2022/03/03 02:01:47;;;;;;;;;;;0.50;99.90;;;;;;5099114;28;19931;-80
2022/03/03 02:04:14;;;;;;;;;;;0.50;99.90;;;;;;5108042;28;19934;-79
2022/03/03 02:06:40;;;;;;;;;;;0.40;99.90;;;;;;5112314;28;20102;-79
2022/03/03 02:09:07;;;;;;;;;;;0.40;99.90;;;;;;5103421;28;19931;-79
2022/03/03 02:11:34;;;;;;;;;;;0.40;99.90;;;;;;5106283;28;19931;-79
2022/03/03 02:14:01;;;;;;;;;;;0.40;99.90;;;;;;5111729;28;19924;-79
2022/03/03 02:16:27;;;;;;;;;;;0.40;99.90;;;;;;5100301;28;19924;-78
2022/03/03 02:18:54;;;;;;;;;;;0.40;99.90;;;;;;5107166;28;19928;-80
2022/03/03 02:21:20;;;;;;;;;;;0.30;99.90;;;;;;5100573;28;19931;-79
2022/03/03 02:23:47;;;;;;;;;;;0.30;99.90;;;;;;5107338;28;19931;-83
2022/03/03 02:26:13;;;;;;;;;;;0.30;99.90;;;;;;5105073;28;19931;-79
2022/03/03 02:28:40;;;;;;;;;;;0.20;99.90;;;;;;5103693;28;20019;-79
2022/03/03 02:31:06;;;;;;;;;;;0.20;99.90;;;;;;5099385;28;20407;-79
2022/03/03 02:33:33;;;;;;;;;;;0.20;99.90;;;;;;5095613;28;19931;-79
2022/03/03 02:36:00;;;;;;;;;;;0.30;99.90;;;;;;5094524;28;19932;-79
2022/03/03 02:38:26;;;;;;;;;;;0.30;99.90;;;;;;5092840;28;19924;-82
2022/03/03 02:40:53;;;;;;;;;;;0.30;99.90;;;;;;5100093;28;19945;-79
2022/03/03 02:43:21;;;;;;;;;;;0.30;99.90;;;;;;5102464;28;19924;-80
2022/03/03 02:45:47;;;;;;;;;;;0.30;99.90;;;;;;5107105;28;20287;-82
2022/03/03 02:48:14;;;;;;;;;;;0.40;99.90;;;;;;5095542;28;19924;-79
2022/03/03 02:50:41;;;;;;;;;;;0.30;99.90;;;;;;5102944;28;19924;-78
2022/03/03 02:53:07;;;;;;;;;;;0.40;99.90;;;;;;5099226;28;20264;-78
2022/03/03 02:55:34;;;;;;;;;;;0.30;99.90;;;;;;5099634;28;20374;-79
2022/03/03 02:58:00;;;;;;;;;;;0.30;99.90;;;;;;5096440;28;19928;-80
2022/03/03 03:00:27;;;;;;;;;;;0.20;99.90;;;;;;5104392;28;19972;-79
2022/03/03 03:02:53;;;;;;;;;;;0.30;99.90;;;;;;5104390;28;19931;-80
2022/03/03 03:05:20;;;;;;;;;;;0.30;99.90;;;;;;5106281;28;20322;-79
2022/03/03 03:07:46;;;;;;;;;;;0.30;99.90;;;;;;5093830;28;19946;-79
2022/03/03 03:10:13;;;;;;;;;;;0.30;99.90;;;;;;5104402;28;19931;-79
2022/03/03 03:12:39;;;;;;;;;;;0.30;99.90;;;;;;5107290;28;20363;-79
2022/03/03 03:15:06;;;;;;;;;;;0.20;99.90;;;;;;5099406;28;20387;-79
2022/03/03 03:17:32;;;;;;;;;;;0.20;99.90;;;;;;5104767;28;19935;-78
2022/03/03 03:19:59;;;;;;;;;;;0.20;99.90;;;;;;5105163;28;19931;-81
2022/03/03 03:22:25;;;;;;;;;;;0.20;99.90;;;;;;5098731;28;19924;-79
2022/03/03 03:24:52;;;;;;;;;;;0.20;99.90;;;;;;5100609;28;19935;-82
2022/03/03 03:27:18;;;;;;;;;;;0.20;99.90;;;;;;5105164;28;19923;-77
2022/03/03 03:29:45;;;;;;;;;;;0.10;99.90;;;;;;5100212;28;19924;-77
2022/03/03 03:32:12;;;;;;;;;;;0.10;99.90;;;;;;5105403;28;20429;-76
2022/03/03 03:34:38;;;;;;;;;;;0.10;99.90;;;;;;5101082;28;19924;-79
2022/03/03 03:37:05;;;;;;;;;;;0.00;99.90;;;;;;5104131;28;20022;-79
2022/03/03 03:39:31;;;;;;;;;;;0.00;99.90;;;;;;5105705;28;19927;-79
2022/03/03 03:41:58;;;;;;;;;;;0.00;99.90;;;;;;5097618;28;19923;-79
2022/03/03 03:44:24;;;;;;;;;;;0.00;99.90;;;;;;5107013;28;19924;-79
2022/03/03 03:46:51;;;;;;;;;;;0.00;99.90;;;;;;5097329;28;19930;-82
2022/03/03 03:49:17;;;;;;;;;;;0.00;99.90;;;;;;5104180;28;19931;-79
2022/03/03 03:51:44;;;;;;;;;;;-0.10;99.90;;;;;;5097529;28;19924;-79
2022/03/03 03:54:10;;;;;;;;;;;-0.10;99.90;;;;;;5110329;28;19928;-79
2022/03/03 03:56:37;;;;;;;;;;;-0.10;99.90;;;;;;5100513;28;19931;-79
2022/03/03 03:59:03;;;;;;;;;;;-0.20;99.90;;;;;;5109049;28;19931;-79
2022/03/03 04:01:31;;;;;;;;;;;-0.20;99.90;;;;;;5101890;28;19931;-79
2022/03/03 04:03:57;;;;;;;;;;;-0.10;99.90;;;;;;5101504;28;19931;-79
2022/03/03 04:06:24;;;;;;;;;;;-0.20;99.90;;;;;;5103729;28;19928;-77
2022/03/03 04:08:50;;;;;;;;;;;-0.20;99.90;;;;;;5109303;28;19932;-77
2022/03/03 04:11:17;;;;;;;;;;;-0.10;99.90;;;;;;5106684;28;19931;-79
2022/03/03 04:13:43;;;;;;;;;;;-0.10;99.90;;;;;;5102579;28;19923;-78
2022/03/03 04:16:10;;;;;;;;;;;-0.10;99.90;;;;;;5102722;28;20010;-79
2022/03/03 04:18:36;;;;;;;;;;;-0.10;99.90;;;;;;5106006;28;19931;-79
2022/03/03 04:21:05;;;;;;;;;;;-0.10;99.90;;;;;;5107805;28;19928;-77
2022/03/03 04:23:31;;;;;;;;;;;-0.10;99.90;;;;;;5103348;28;19924;-79
2022/03/03 04:25:58;;;;;;;;;;;-0.10;99.90;;;;;;5102426;28;19924;-79
2022/03/03 04:28:24;;;;;;;;;;;-0.10;99.90;;;;;;5104385;28;19924;-79
2022/03/03 04:30:51;;;;;;;;;;;-0.10;99.90;;;;;;5101553;28;19924;-79
2022/03/03 04:33:18;;;;;;;;;;;-0.10;99.90;;;;;;5104821;28;19924;-80
2022/03/03 04:35:44;;;;;;;;;;;-0.20;99.90;;;;;;5109999;28;19931;-79
2022/03/03 04:38:11;;;;;;;;;;;-0.20;99.90;;;;;;5105418;28;19928;-79
2022/03/03 04:40:37;;;;;;;;;;;-0.20;99.90;;;;;;5096661;28;20367;-79
2022/03/03 04:43:04;;;;;;;;;;;-0.30;99.90;;;;;;5100572;28;19949;-79
2022/03/03 04:45:30;;;;;;;;;;;-0.40;99.90;;;;;;5104365;28;19928;-79
2022/03/03 04:47:57;;;;;;;;;;;-0.30;99.90;;;;;;5091167;28;19924;-83
2022/03/03 04:50:23;;;;;;;;;;;-0.40;99.90;;;;;;5103094;28;19935;-80
2022/03/03 04:52:50;;;;;;;;;;;-0.50;99.90;;;;;;5102601;28;19932;-79
2022/03/03 04:55:16;;;;;;;;;;;-0.50;99.90;;;;;;5101597;28;20005;-79
2022/03/03 04:57:43;;;;;;;;;;;-0.50;99.90;;;;;;5109843;28;19928;-79
2022/03/03 05:00:10;;;;;;;;;;;-0.50;99.90;;;;;;5102990;28;19932;-79
2022/03/03 05:02:36;;;;;;;;;;;-0.50;99.90;;;;;;5106115;28;19924;-79
2022/03/03 05:05:03;;;;;;;;;;;-0.40;99.90;;;;;;5107393;28;19931;-80
2022/03/03 05:07:29;;;;;;;;;;;-0.50;99.90;;;;;;5101178;28;19947;-80
2022/03/03 05:09:56;;;;;;;;;;;-0.40;99.90;;;;;;5100249;28;20391;-79
2022/03/03 05:12:22;;;;;;;;;;;-0.40;99.90;;;;;;5107498;28;19924;-80
2022/03/03 05:14:49;;;;;;;;;;;-0.50;99.90;;;;;;5098929;28;19924;-80
2022/03/03 05:17:15;;;;;;;;;;;-0.50;99.90;;;;;;5107035;28;19931;-80
2022/03/03 05:19:42;;;;;;;;;;;-0.50;99.90;;;;;;5106344;28;19927;-80
2022/03/03 05:22:08;;;;;;;;;;;-0.50;99.90;;;;;;5113713;28;19924;-80
2022/03/03 05:24:35;;;;;;;;;;;-0.50;99.90;;;;;;5104087;28;19928;-79
2022/03/03 05:27:01;;;;;;;;;;;-0.40;99.90;;;;;;5112307;28;19924;-80
2022/03/03 05:29:28;;;;;;;;;;;-0.40;99.90;;;;;;5101066;28;19931;-79
2022/03/03 05:31:57;;;;;;;;;;;-0.30;99.90;;;;;;5100070;28;19924;-79
2022/03/03 05:34:23;;;;;;;;;;;-0.40;99.90;;;;;;5112881;28;19927;-79
2022/03/03 05:36:50;;;;;;;;;;;-0.40;99.90;;;;;;5108442;28;19931;-79
2022/03/03 05:39:16;;;;;;;;;;;-0.40;99.90;;;;;;5093278;28;19924;-79
2022/03/03 05:41:43;;;;;;;;;;;-0.40;99.90;;;;;;5100693;28;20371;-79
2022/03/03 05:44:09;;;;;;;;;;;-0.40;99.90;;;;;;5103800;28;19947;-80
2022/03/03 05:46:36;;;;;;;;;;;-0.40;99.90;;;;;;5113804;28;20286;-79
2022/03/03 05:49:04;;;;;;;;;;;-0.40;99.90;;;;;;5099847;28;19931;-83
2022/03/03 05:51:31;;;;;;;;;;;-0.40;99.90;;;;;;5106767;28;19924;-79
2022/03/03 05:53:57;;;;;;;;;;;-0.40;99.90;;;;;;5110734;28;19928;-78
2022/03/03 05:56:24;;;;;;;;;;;-0.40;99.90;;;;;;5103089;28;19938;-79
2022/03/03 05:58:50;;;;;;;;;;;-0.40;99.90;;;;;;5105363;28;19931;-79
2022/03/03 06:01:17;;;;;;;;;;;-0.50;99.90;;;;;;5096880;28;19924;-79
2022/03/03 06:03:43;;;;;;;;;;;-0.50;99.90;;;;;;5099768;28;19931;-77
2022/03/03 06:06:11;;;;;;;;;;;-0.40;99.90;;;;;;5111764;28;19924;-78
2022/03/03 06:08:38;;;;;;;;;;;-0.50;99.90;;;;;;5101317;28;20008;-79
2022/03/03 06:11:04;;;;;;;;;;;-0.50;99.90;;;;;;5097968;28;19932;-82
2022/03/03 06:13:31;;;;;;;;;;;-0.50;99.90;;;;;;5108217;28;19924;-79
2022/03/03 06:15:57;;;;;;;;;;;-0.50;99.90;;;;;;5105159;28;19924;-79
2022/03/03 06:18:24;;;;;;;;;;;-0.50;99.90;;;;;;5105093;28;19984;-79
2022/03/03 06:20:50;;;;;;;;;;;-0.60;99.90;;;;;;5111152;28;19924;-79
2022/03/03 06:23:17;;;;;;;;;;;-0.70;99.90;;;;;;5100104;28;19990;-78
2022/03/03 06:25:44;;;;;;;;;;;-0.60;99.90;;;;;;5106906;28;19928;-79
2022/03/03 06:28:10;;;;;;;;;;;-0.60;99.90;;;;;;5108656;28;19973;-79
2022/03/03 06:30:37;;;;;;;;;;;-0.70;99.90;;;;;;5099587;28;19932;-78
2022/03/03 06:33:04;;;;;;;;;;;-0.70;99.90;;;;;;5105872;28;20409;-82
2022/03/03 06:35:35;;;;;;;;;;;-0.70;99.90;;;;;;5109780;28;19928;-79
2022/03/03 06:38:02;;;;;;;;;;;-0.70;99.90;;;;;;5099638;28;20437;-79
2022/03/03 06:40:29;;;;;;;;;;;-0.80;99.90;;;;;;5105177;28;20019;-79
2022/03/03 06:43:00;;;;;;;;;;;-0.80;99.90;;;;;;5101927;28;20367;-79
2022/03/03 06:45:26;;;;;;;;;;;-0.70;99.90;;;;;;5102149;28;20680;-80
2022/03/03 06:47:53;;;;;;;;;;;-0.70;99.90;;;;;;5105463;28;19946;-79
2022/03/03 06:50:20;;;;;;;;;;;-0.70;99.90;;;;;;5098930;28;19924;-80
2022/03/03 06:52:46;;;;;;;;;;;-0.60;99.90;;;;;;5092928;28;20011;-80
2022/03/03 06:55:13;;;;;;;;;;;-0.50;99.90;;;;;;5092162;28;20386;-80
2022/03/03 06:57:40;;;;;;;;;;;-0.50;99.90;;;;;;5096406;28;20033;-79
2022/03/03 07:00:06;;;;;;;;;;;-0.40;99.90;;;;;;5097873;28;19924;-83
2022/03/03 07:02:33;;;;;;;;;;;-0.30;99.90;;;;;;5093126;28;19939;-80
2022/03/03 07:04:59;;;;;;;;;;;-0.10;99.90;;;;;;5097147;28;19924;-80
2022/03/03 07:07:26;;;;;;;;;;;0.00;99.90;;;;;;5093282;28;20041;-80
2022/03/03 07:09:52;;;;;;;;;;;0.10;99.90;;;;;;5097990;28;20290;-80
2022/03/03 07:12:19;;;;;;;;;;;0.30;99.90;;;;;;5107265;28;20378;-80
2022/03/03 07:14:46;;;;;;;;;;;0.50;99.90;;;;;;5092902;28;19924;-80
2022/03/03 07:17:13;;;;;;;;;;;0.60;99.90;;;;;;5092464;28;19975;-80
2022/03/03 07:19:39;;;;;;;;;;;0.70;99.90;;;;;;5109143;28;19924;-78
2022/03/03 07:22:07;;;;;;;;;;;0.80;99.90;;;;;;5096527;28;19931;-80
2022/03/03 07:24:34;;;;;;;;;;;0.90;99.90;;;;;;5094848;28;20359;-80
2022/03/03 07:27:00;;;;;;;;;;;1.10;99.90;;;;;;5098018;28;20394;-80
2022/03/03 07:29:27;;;;;;;;;;;1.30;99.90;;;;;;5099520;28;20355;-80
2022/03/03 07:31:54;;;;;;;;;;;1.40;99.90;;;;;;5095243;28;19950;-81
2022/03/03 07:34:20;;;;;;;;;;;1.50;99.90;;;;;;5092276;28;19930;-80
2022/03/03 07:36:47;;;;;;;;;;;1.60;99.90;;;;;;5095206;28;19924;-80
2022/03/03 07:39:13;;;;;;;;;;;1.70;99.90;;;;;;5092308;28;20371;-81
2022/03/03 07:41:40;;;;;;;;;;;1.80;99.90;;;;;;5106539;28;19924;-80
2022/03/03 07:44:07;;;;;;;;;;;2.00;99.90;;;;;;5090787;28;19924;-80
2022/03/03 07:46:33;;;;;;;;;;;2.10;99.90;;;;;;5099558;28;19932;-79
2022/03/03 07:49:00;;;;;;;;;;;2.40;99.90;;;;;;5096100;28;19924;-80
2022/03/03 07:51:27;;;;;;;;;;;2.50;99.90;;;;;;5092157;28;19931;-80
2022/03/03 07:53:54;;;;;;;;;;;2.60;99.90;;;;;;5090449;28;20265;-80
2022/03/03 07:56:20;;;;;;;;;;;2.70;99.90;;;;;;5110547;27;19924;-80
2022/03/03 07:58:47;;;;;;;;;;;2.80;99.90;;;;;;5093144;28;19924;-80
2022/03/03 08:01:14;;;;;;;;;;;2.90;99.90;;;;;;5094632;28;19943;-80
2022/03/03 08:03:40;;;;;;;;;;;3.00;99.90;;;;;;5090834;28;19990;-80
2022/03/03 08:06:07;;;;;;;;;;;3.20;99.90;;;;;;5096340;28;20071;-80
2022/03/03 08:08:33;;;;;;;;;;;3.20;99.90;;;;;;5096280;28;19928;-79
2022/03/03 08:11:00;;;;;;;;;;;3.40;99.90;;;;;;5092091;28;20329;-80
2022/03/03 08:13:26;;;;;;;;;;;3.50;99.90;;;;;;5093891;28;20355;-80
2022/03/03 08:15:53;;;;;;;;;;;3.60;99.90;;;;;;5093888;28;19931;-80
2022/03/03 08:18:19;;;;;;;;;;;3.60;99.90;;;;;;5104111;28;19924;-80
2022/03/03 08:20:46;;;;;;;;;;;3.60;99.90;;;;;;5096120;28;19946;-80
2022/03/03 08:23:12;;;;;;;;;;;3.70;99.90;;;;;;5094121;28;19931;-82
2022/03/03 08:25:39;;;;;;;;;;;3.80;99.90;;;;;;5094006;28;19928;-81
2022/03/03 08:28:06;;;;;;;;;;;3.70;99.90;;;;;;5104125;28;19935;-80
2022/03/03 08:30:34;;;;;;;;;;;3.80;99.90;;;;;;5094642;28;19931;-80
2022/03/03 08:33:00;;;;;;;;;;;3.90;99.90;;;;;;5092532;28;19947;-80
2022/03/03 08:35:27;;;;;;;;;;;3.90;99.90;;;;;;5092832;28;19932;-80
2022/03/03 08:37:54;;;;;;;;;;;4.00;99.90;;;;;;5091447;28;19924;-81
2022/03/03 08:40:22;;;;;;;;;;;4.00;99.90;;;;;;5093914;28;20379;-81
2022/03/03 08:42:51;;;;;;;;;;;4.00;99.90;;;;;;5095494;28;19924;-81
2022/03/03 08:45:18;;;;;;;;;;;4.00;99.90;;;;;;5089959;28;19924;-81
2022/03/03 08:47:44;;;;;;;;;;;4.20;99.90;;;;;;5090676;28;19924;-82
2022/03/03 08:50:13;;;;;;;;;;;4.30;99.90;;;;;;5093202;28;19924;-81
2022/03/03 08:52:40;;;;;;;;;;;4.30;99.90;;;;;;5095312;28;19924;-81
2022/03/03 08:55:06;;;;;;;;;;;4.50;99.90;;;;;;5102034;28;20386;-81
2022/03/03 08:57:33;;;;;;;;;;;4.30;99.90;;;;;;5093259;28;20301;-81
2022/03/03 09:00:00;;;;;;;;;;;4.50;99.90;;;;;;5093917;28;19924;-81
2022/03/03 09:02:26;;;;;;;;;;;4.50;99.90;;;;;;5094082;28;19943;-81
2022/03/03 09:04:53;;;;;;;;;;;4.60;99.90;;;;;;5095229;28;19924;-81
2022/03/03 09:07:19;;;;;;;;;;;4.80;99.90;;;;;;5094112;28;19985;-82
2022/03/03 09:09:46;;;;;;;;;;;4.90;99.90;;;;;;5094450;28;19939;-82
2022/03/03 09:12:13;;;;;;;;;;;5.20;99.90;;;;;;5130762;27;19938;-82
2022/03/03 09:14:40;;;;;;;;;;;5.30;99.90;;;;;;5107793;28;19981;-83
2022/03/03 09:17:06;;;;;;;;;;;5.50;99.90;;;;;;5100310;28;19928;-83
2022/03/03 09:19:33;;;;;;;;;;;5.60;99.90;;;;;;5104964;28;19931;-83
2022/03/03 09:21:59;;;;;;;;;;;5.80;99.90;;;;;;5102988;28;19924;-83
2022/03/03 09:24:26;;;;;;;;;;;6.00;99.90;;;;;;5103579;28;20416;-84
2022/03/03 09:26:54;;;;;;;;;;;6.10;99.90;;;;;;5106930;28;19924;-82
2022/03/03 09:29:21;;;;;;;;;;;6.20;99.90;;;;;;5102926;28;19970;-83
2022/03/03 09:31:47;;;;;;;;;;;6.30;99.90;;;;;;5109314;28;19924;-81
2022/03/03 09:34:14;;;;;;;;;;;6.40;99.90;;;;;;5101445;28;19931;-83
2022/03/03 09:36:41;;;;;;;;;;;6.30;99.90;;;;;;5108028;28;19924;-82
2022/03/03 09:39:07;;;;;;;;;;;6.30;99.90;;;;;;5105259;28;19932;-83
2022/03/03 09:41:34;;;;;;;;;;;6.60;99.90;;;;;;5107965;28;19931;-83
2022/03/03 09:44:00;;;;;;;;;;;6.60;99.90;;;;;;5095308;28;19924;-84
2022/03/03 09:46:27;;;;;;;;;;;6.50;99.90;;;;;;5104701;28;19924;-81
2022/03/03 09:48:53;;;;;;;;;;;6.60;99.90;;;;;;5100731;28;19924;-81
2022/03/03 09:51:20;;;;;;;;;;;6.60;99.90;;;;;;5105612;28;19939;-84
2022/03/03 09:53:49;;;;;;;;;;;6.70;99.90;;;;;;5104169;28;20023;-82
2022/03/03 09:56:15;;;;;;;;;;;6.80;99.90;;;;;;5093795;28;19928;-80
2022/03/03 09:58:42;;;;;;;;;;;6.90;99.90;;;;;;5099076;28;19947;-81
2022/03/03 10:01:09;;;;;;;;;;;7.10;99.90;;;;;;5096677;28;20347;-81
2022/03/03 10:03:36;;;;;;;;;;;7.10;99.90;;;;;;5094684;28;20359;-81
2022/03/03 10:06:02;;;;;;;;;;;7.20;99.90;;;;;;5097050;28;20279;-82
2022/03/03 10:08:29;;;;;;;;;;;7.30;99.90;;;;;;5093463;28;20009;-82
2022/03/03 10:10:55;;;;;;;;;;;7.30;99.90;;;;;;5096660;28;19924;-82
2022/03/03 10:13:22;;;;;;;;;;;7.40;99.90;;;;;;5099523;28;19924;-85
2022/03/03 10:15:49;;;;;;;;;;;7.40;99.90;;;;;;5097291;28;19923;-82
2022/03/03 10:18:15;;;;;;;;;;;7.50;99.90;;;;;;5098729;28;20287;-83
2022/03/03 10:20:42;;;;;;;;;;;7.40;99.90;;;;;;5095539;28;19920;-82
2022/03/03 10:23:08;;;;;;;;;;;7.50;99.90;;;;;;5095915;28;19924;-82
2022/03/03 10:25:35;;;;;;;;;;;7.40;99.90;;;;;;5095685;28;19924;-83
2022/03/03 10:28:01;;;;;;;;;;;7.50;99.90;;;;;;5092520;28;20450;-83
2022/03/03 10:30:28;;;;;;;;;;;7.50;99.90;;;;;;5099509;28;20359;-84
2022/03/03 10:32:54;;;;;;;;;;;7.70;99.90;;;;;;5123129;27;20356;-82
2022/03/03 10:35:21;;;;;;;;;;;7.70;99.90;;;;;;5092594;28;19947;-84
2022/03/03 10:37:47;;;;;;;;;;;7.80;99.90;;;;;;5093170;28;20035;-82
2022/03/03 10:40:14;;;;;;;;;;;7.80;99.90;;;;;;5090716;28;19928;-82
2022/03/03 10:42:41;;;;;;;;;;;7.80;99.80;;;;;;5101401;28;19927;-83
2022/03/03 10:45:07;;;;;;;;;;;7.90;99.90;;;;;;5090288;28;19931;-83
2022/03/03 10:47:34;;;;;;;;;;;8.00;99.90;;;;;;5094046;28;19924;-83
2022/03/03 10:50:00;;;;;;;;;;;8.00;99.90;;;;;;5103212;28;19931;-81
2022/03/03 10:52:27;;;;;;;;;;;7.90;99.90;;;;;;5103962;28;19928;-83
2022/03/03 10:54:54;;;;;;;;;;;8.00;99.90;;;;;;5095849;28;19932;-83
2022/03/03 10:57:21;;;;;;;;;;;7.90;99.90;;;;;;5098515;28;19927;-82
2022/03/03 10:59:47;;;;;;;;;;;8.10;99.90;;;;;;5104533;28;19928;-82
2022/03/03 11:02:14;;;;;;;;;;;8.10;99.90;;;;;;5100095;28;19928;-83
2022/03/03 11:04:41;;;;;;;;;;;8.10;99.90;;;;;;5091565;28;19928;-81
2022/03/03 11:07:08;;;;;;;;;;;8.10;99.90;;;;;;5098966;28;19924;-83
2022/03/03 11:09:36;;;;;;;;;;;8.20;99.90;;;;;;5093324;28;19934;-82
2022/03/03 11:12:03;;;;;;;;;;;8.10;99.90;;;;;;5093333;28;20376;-83
2022/03/03 11:14:30;;;;;;;;;;;8.10;99.90;;;;;;5097575;28;20013;-82
2022/03/03 11:16:58;;;;;;;;;;;8.20;99.90;;;;;;5098337;28;19932;-82
2022/03/03 11:19:24;;;;;;;;;;;8.20;99.90;;;;;;5100194;28;19967;-84
2022/03/03 11:21:51;;;;;;;;;;;8.30;99.90;;;;;;5098928;28;19928;-82
2022/03/03 11:24:17;;;;;;;;;;;8.30;99.90;;;;;;5095222;28;19935;-82
2022/03/03 11:26:44;;;;;;;;;;;8.40;99.90;;;;;;5088725;28;19935;-83
2022/03/03 11:29:11;;;;;;;;;;;8.40;99.90;;;;;;5092462;28;19927;-82
2022/03/03 11:31:37;;;;;;;;;;;8.40;99.90;;;;;;5095846;28;19924;-83
2022/03/03 11:34:04;;;;;;;;;;;8.40;99.90;;;;;;5090624;28;19924;-83
2022/03/03 11:36:30;;;;;;;;;;;8.40;99.90;;;;;;5094069;28;19931;-83
2022/03/03 11:38:57;;;;;;;;;;;8.40;99.90;;;;;;5101324;28;19932;-83
2022/03/03 11:41:25;;;;;;;;;;;8.60;99.90;;;;;;5097488;28;19935;-83
2022/03/03 11:43:52;;;;;;;;;;;8.60;99.90;;;;;;5094942;28;19928;-82
2022/03/03 11:46:18;;;;;;;;;;;8.60;99.20;;;;;;5103257;28;19930;-82
2022/03/03 11:48:45;;;;;;;;;;;8.50;99.40;;;;;;5095656;28;19934;-82
2022/03/03 11:51:11;;;;;;;;;;;8.50;99.20;;;;;;5094672;28;19934;-82
2022/03/03 11:53:38;;;;;;;;;;;8.50;99.40;;;;;;5092549;28;19928;-82
2022/03/03 11:56:05;;;;;;;;;;;8.50;99.90;;;;;;5092639;28;19935;-82
2022/03/03 11:58:32;;;;;;;;;;;8.50;99.90;;;;;;5096610;28;19931;-83
2022/03/03 12:00:58;;;;;;;;;;;8.50;99.90;;;;;;5102792;28;19932;-83
2022/03/03 12:03:25;;;;;;;;;;;8.60;99.90;;;;;;5098780;28;19924;-82
2022/03/03 12:05:52;;;;;;;;;;;8.80;99.90;;;;;;5093187;28;19931;-82
2022/03/03 12:08:18;;;;;;;;;;;8.80;98.90;;;;;;5102790;28;19924;-82
2022/03/03 12:10:45;;;;;;;;;;;8.70;99.30;;;;;;5094953;28;19932;-82
2022/03/03 12:13:11;;;;;;;;;;;8.80;98.50;;;;;;5107403;28;19923;-82
2022/03/03 12:15:38;;;;;;;;;;;8.70;98.40;;;;;;5092710;28;20020;-80
2022/03/03 12:18:04;;;;;;;;;;;8.70;98.70;;;;;;5098222;28;19932;-82
2022/03/03 12:20:32;;;;;;;;;;;8.80;97.90;;;;;;5093354;28;19924;-85
2022/03/03 12:22:58;;;;;;;;;;;8.80;97.60;;;;;;5093238;28;19935;-81
2022/03/03 12:25:25;;;;;;;;;;;8.90;97.50;;;;;;5092819;28;19930;-82
2022/03/03 12:27:52;;;;;;;;;;;8.90;97.80;;;;;;5094621;28;19926;-82
2022/03/03 12:30:19;;;;;;;;;;;8.90;97.50;;;;;;5094882;28;19931;-81
2022/03/03 12:32:46;;;;;;;;;;;9.00;97.70;;;;;;5097817;28;19924;-82
2022/03/03 12:35:13;;;;;;;;;;;9.10;97.40;;;;;;5101493;28;19967;-82
2022/03/03 12:37:40;;;;;;;;;;;9.00;97.00;;;;;;5102726;28;20019;-83
2022/03/03 12:40:06;;;;;;;;;;;9.10;96.00;;;;;;5111655;28;19930;-82
2022/03/03 12:42:33;;;;;;;;;;;9.10;96.30;;;;;;5112294;28;19924;-85
2022/03/03 12:44:59;;;;;;;;;;;9.10;96.30;;;;;;5101011;28;20358;-82
2022/03/03 12:47:26;;;;;;;;;;;9.30;96.20;;;;;;5106630;28;20302;-82
2022/03/03 12:49:52;;;;;;;;;;;9.30;96.40;;;;;;5106721;28;19993;-80
2022/03/03 12:52:19;;;;;;;;;;;9.30;95.70;;;;;;5114050;28;19924;-82
2022/03/03 12:54:45;;;;;;;;;;;9.30;95.00;;;;;;5112593;28;19931;-83
2022/03/03 12:57:12;;;;;;;;;;;9.40;94.00;;;;;;5104243;28;19935;-82
2022/03/03 12:59:39;;;;;;;;;;;9.40;92.50;;;;;;5100477;28;19923;-81
2022/03/03 13:02:05;;;;;;;;;;;9.40;93.40;;;;;;5107568;28;20291;-83
2022/03/03 13:04:32;;;;;;;;;;;9.50;92.40;;;;;;5102999;28;20394;-82
2022/03/03 13:06:58;;;;;;;;;;;9.50;93.00;;;;;;5098718;28;20012;-81
2022/03/03 13:09:25;;;;;;;;;;;9.50;92.40;;;;;;5111371;28;19947;-81
2022/03/03 13:11:51;;;;;;;;;;;9.50;92.60;;;;;;5094973;28;20287;-80
2022/03/03 13:14:18;;;;;;;;;;;9.50;91.50;;;;;;5097733;28;19934;-85
2022/03/03 13:16:44;;;;;;;;;;;9.50;90.90;;;;;;5100327;28;19951;-81
2022/03/03 13:19:11;;;;;;;;;;;9.60;91.40;;;;;;5105817;28;20287;-80
2022/03/03 13:21:38;;;;;;;;;;;9.60;91.30;;;;;;5106238;28;19959;-83
2022/03/03 13:24:04;;;;;;;;;;;9.60;91.20;;;;;;5095850;28;20336;-80
2022/03/03 13:26:31;;;;;;;;;;;9.60;89.30;;;;;;5104387;28;19928;-80
2022/03/03 13:29:00;;;;;;;;;;;9.70;91.00;;;;;;5103983;28;19932;-81
2022/03/03 13:31:27;;;;;;;;;;;9.60;88.40;;;;;;5113047;28;20468;-80
2022/03/03 13:33:53;;;;;;;;;;;9.70;88.60;;;;;;5106572;28;19924;-81
2022/03/03 13:36:20;;;;;;;;;;;9.80;86.60;;;;;;5107831;28;20401;-81
2022/03/03 13:38:46;;;;;;;;;;;9.70;85.90;;;;;;5099421;28;20372;-81
2022/03/03 13:41:13;;;;;;;;;;;9.70;84.00;;;;;;5102331;28;19931;-80
2022/03/03 13:43:39;;;;;;;;;;;9.70;84.00;;;;;;5102975;28;20375;-81
2022/03/03 13:46:06;;;;;;;;;;;9.70;85.00;;;;;;5108427;28;20271;-79
2022/03/03 13:48:33;;;;;;;;;;;9.70;84.60;;;;;;5103397;28;19924;-81
2022/03/03 13:51:00;;;;;;;;;;;9.70;83.60;;;;;;5105553;28;19924;-81
2022/03/03 13:53:27;;;;;;;;;;;9.70;81.00;;;;;;5106711;28;19931;-82
2022/03/03 13:55:53;;;;;;;;;;;9.60;82.10;;;;;;5099207;27;19924;-81
2022/03/03 13:58:20;;;;;;;;;;;9.70;83.00;;;;;;5102625;28;19923;-82
2022/03/03 14:00:47;;;;;;;;;;;9.70;84.00;;;;;;5107493;28;19931;-81
2022/03/03 14:03:13;;;;;;;;;;;9.60;83.00;;;;;;5112943;28;20011;-81
2022/03/03 14:05:40;;;;;;;;;;;9.60;83.90;;;;;;5100138;28;20407;-85
2022/03/03 14:08:07;;;;;;;;;;;9.70;84.90;;;;;;5111745;28;20371;-81
2022/03/03 14:10:34;;;;;;;;;;;9.60;83.10;;;;;;5101790;28;19928;-81
2022/03/03 14:13:00;;;;;;;;;;;9.70;85.20;;;;;;5102593;28;20297;-84
2022/03/03 14:15:27;;;;;;;;;;;9.70;84.90;;;;;;5102785;28;19947;-82
2022/03/03 14:17:53;;;;;;;;;;;9.70;86.60;;;;;;5111416;28;20344;-82
2022/03/03 14:20:20;;;;;;;;;;;9.70;90.20;;;;;;5098975;28;20368;-81
2022/03/03 14:22:46;;;;;;;;;;;9.60;84.20;;;;;;5108306;28;19931;-81